Time;durP1;ratioP1;P1;durP2;ratioP2;P2;SDS_P1;SDS_P2;PMS_P1;PMS_P2;Temp;Humidity;BMP_temperature;BMP_pressure;BME280_temperature;BME280_humidity;BME280_pressure;Samples;Min_cycle;Max_cycle;Signal;HPM_P1;HPM_P2
2021/07/07 00:01:34;;;;;;;2.93;1.60;;;20.80;99.90;;;;;;5010416;28;20433;-83
2021/07/07 00:03:59;;;;;;;3.15;1.50;;;20.80;99.90;;;;;;5010090;28;20379;-84
2021/07/07 00:06:25;;;;;;;3.37;1.73;;;20.90;99.90;;;;;;5025225;28;20387;-84
2021/07/07 00:08:50;;;;;;;4.07;1.77;;;20.80;99.90;;;;;;5014795;28;20389;-82
2021/07/07 00:11:17;;;;;;;2.57;1.80;;;20.80;99.90;;;;;;5002932;28;20462;-83
2021/07/07 00:13:43;;;;;;;2.20;1.65;;;20.70;99.90;;;;;;5025179;28;20859;-82
2021/07/07 00:16:08;;;;;;;3.00;1.63;;;20.70;99.90;;;;;;5009948;28;20452;-82
2021/07/07 00:18:34;;;;;;;2.28;1.60;;;20.70;99.90;;;;;;4992532;28;20819;-82
2021/07/07 00:21:00;;;;;;;4.23;1.77;;;20.70;99.90;;;;;;4992343;28;20959;-84
2021/07/07 00:23:27;;;;;;;4.55;1.95;;;20.70;99.90;;;;;;5010300;28;20737;-83
2021/07/07 00:25:54;;;;;;;3.60;1.80;;;20.70;99.90;;;;;;5010088;28;20416;-83
2021/07/07 00:28:21;;;;;;;4.63;1.70;;;20.60;99.90;;;;;;5013583;28;20385;-83
2021/07/07 00:30:47;;;;;;;3.03;1.67;;;20.70;99.90;;;;;;5023690;28;20362;-84
2021/07/07 00:33:15;;;;;;;2.80;1.80;;;20.70;99.90;;;;;;5029055;28;20413;-83
2021/07/07 00:35:40;;;;;;;2.88;1.70;;;20.70;99.90;;;;;;5011461;28;20417;-83
2021/07/07 00:38:06;;;;;;;4.17;1.90;;;20.70;99.90;;;;;;5027714;28;20389;-83
2021/07/07 00:40:32;;;;;;;1.95;1.48;;;20.70;99.90;;;;;;5009700;28;20385;-83
2021/07/07 00:42:57;;;;;;;4.93;2.17;;;20.70;99.90;;;;;;5029063;28;20396;-85
2021/07/07 00:45:23;;;;;;;4.30;1.98;;;20.60;99.90;;;;;;5023303;28;20892;-82
2021/07/07 00:47:49;;;;;;;4.50;1.80;;;20.60;99.90;;;;;;4991636;28;21105;-83
2021/07/07 00:50:16;;;;;;;5.60;1.93;;;20.70;99.90;;;;;;4991865;28;20383;-82
2021/07/07 00:52:42;;;;;;;4.32;2.10;;;20.70;99.90;;;;;;5024506;28;20415;-81
2021/07/07 00:55:10;;;;;;;3.08;1.77;;;20.60;99.90;;;;;;5009251;28;20765;-82
2021/07/07 00:57:36;;;;;;;3.10;1.80;;;20.60;99.90;;;;;;5024467;28;20379;-83
2021/07/07 01:00:31;;;;;;;2.93;1.83;;;20.60;99.90;;;;;;4992146;28;20384;-82
2021/07/07 01:02:59;;;;;;;4.82;2.10;;;20.50;99.90;;;;;;5007222;28;20393;-82
2021/07/07 01:05:25;;;;;;;5.35;2.05;;;20.40;99.90;;;;;;5028977;28;20457;-84
2021/07/07 01:07:50;;;;;;;2.93;1.87;;;20.40;99.90;;;;;;5011875;28;20832;-89
2021/07/07 01:10:17;;;;;;;4.55;2.10;;;20.30;99.90;;;;;;5012364;28;20388;-84
2021/07/07 01:12:43;;;;;;;4.25;2.10;;;20.40;99.90;;;;;;5027319;28;20396;-86
2021/07/07 01:15:11;;;;;;;3.35;2.15;;;20.30;99.90;;;;;;5012032;28;20432;-86
2021/07/07 01:17:37;;;;;;;5.03;2.33;;;20.30;99.90;;;;;;5011564;28;20397;-82
2021/07/07 01:20:07;;;;;;;3.78;2.03;;;20.10;99.90;;;;;;5009615;28;20746;-86
2021/07/07 01:22:33;;;;;;;3.70;2.45;;;20.10;99.90;;;;;;5014651;28;20375;-85
2021/07/07 01:24:58;;;;;;;5.23;2.20;;;20.10;99.90;;;;;;5025066;28;20393;-85
2021/07/07 01:27:26;;;;;;;5.32;2.17;;;20.10;99.90;;;;;;4991968;28;20391;-83
2021/07/07 01:29:53;;;;;;;2.95;2.22;;;19.90;99.90;;;;;;5009758;28;20387;-84
2021/07/07 01:32:19;;;;;;;3.10;2.00;;;19.90;99.90;;;;;;4992392;28;20395;-83
2021/07/07 01:34:45;;;;;;;5.73;2.43;;;19.80;99.90;;;;;;5008997;28;21007;-82
2021/07/07 01:37:10;;;;;;;6.53;2.30;;;19.90;99.90;;;;;;4991391;28;20403;-85
2021/07/07 01:39:36;;;;;;;4.45;2.25;;;19.80;99.90;;;;;;4991510;28;20383;-84
2021/07/07 01:42:03;;;;;;;4.50;2.30;;;19.80;99.90;;;;;;5010089;28;20370;-85
2021/07/07 01:44:28;;;;;;;3.38;2.03;;;19.80;99.90;;;;;;4995681;28;20452;-85
2021/07/07 01:46:54;;;;;;;5.93;2.30;;;19.70;99.90;;;;;;5031722;28;20468;-85
2021/07/07 01:49:19;;;;;;;6.53;2.20;;;19.90;99.90;;;;;;5014564;28;20443;-84
2021/07/07 01:51:45;;;;;;;4.80;2.60;;;19.70;99.90;;;;;;5015034;28;20894;-88
2021/07/07 01:54:11;;;;;;;4.00;2.70;;;19.60;99.90;;;;;;5033333;28;20468;-83
2021/07/07 01:56:36;;;;;;;4.38;2.45;;;19.70;99.90;;;;;;5032531;28;20771;-84
2021/07/07 01:59:02;;;;;;;5.13;2.60;;;19.60;99.90;;;;;;5015178;28;20424;-86
2021/07/07 02:01:28;;;;;;;5.70;2.70;;;19.50;99.90;;;;;;5030855;28;20474;-83
2021/07/07 02:03:54;;;;;;;4.90;2.47;;;19.50;99.90;;;;;;5032557;28;20439;-87
2021/07/07 02:06:21;;;;;;;7.97;3.03;;;19.50;99.90;;;;;;5014909;28;20392;-85
2021/07/07 02:08:46;;;;;;;4.65;2.70;;;19.50;99.90;;;;;;4995715;28;20405;-85
2021/07/07 02:11:12;;;;;;;5.60;2.83;;;19.50;99.90;;;;;;4995056;28;21167;-84
2021/07/07 02:13:37;;;;;;;4.00;2.58;;;19.50;99.90;;;;;;5012900;28;20410;-83
2021/07/07 02:16:05;;;;;;;8.13;2.93;;;19.40;99.90;;;;;;5028080;28;20406;-86
2021/07/07 02:18:30;;;;;;;5.60;2.88;;;19.40;99.90;;;;;;5028797;28;20876;-85
2021/07/07 02:20:56;;;;;;;4.30;2.78;;;19.40;99.90;;;;;;5012495;28;20387;-83
2021/07/07 02:23:24;;;;;;;7.97;3.07;;;19.30;99.90;;;;;;5027789;28;20789;-83
2021/07/07 02:25:49;;;;;;;3.85;2.72;;;19.50;99.90;;;;;;5032043;28;20406;-81
2021/07/07 02:28:16;;;;;;;4.67;2.80;;;19.40;99.90;;;;;;5031955;28;20378;-82
2021/07/07 02:30:44;;;;;;;3.10;2.42;;;19.20;99.90;;;;;;5014156;28;20928;-82
2021/07/07 02:33:10;;;;;;;4.63;2.72;;;19.30;99.90;;;;;;5012368;28;20713;-84
2021/07/07 02:35:39;;;;;;;6.22;2.95;;;19.40;99.90;;;;;;4994320;28;20403;-82
2021/07/07 02:38:07;;;;;;;3.80;2.70;;;19.40;99.90;;;;;;5011874;28;20876;-83
2021/07/07 02:40:33;;;;;;;5.00;2.60;;;19.30;99.90;;;;;;5012274;28;20428;-83
2021/07/07 02:42:59;;;;;;;8.02;2.95;;;19.30;99.90;;;;;;4998633;28;20397;-83
2021/07/07 02:45:27;;;;;;;5.25;3.05;;;19.20;99.90;;;;;;5031848;28;20515;-85
2021/07/07 02:47:53;;;;;;;6.18;2.83;;;19.30;99.90;;;;;;5013926;28;20409;-85
2021/07/07 02:50:20;;;;;;;5.60;3.15;;;19.20;99.90;;;;;;5013709;28;20389;-85
2021/07/07 02:52:48;;;;;;;5.15;3.05;;;19.20;99.90;;;;;;5003120;28;20390;-87
2021/07/07 02:55:16;;;;;;;7.87;3.23;;;19.20;99.90;;;;;;5026409;28;20430;-86
2021/07/07 03:00:47;;;;;;;8.15;3.80;;;19.20;99.90;;;;;;5013152;28;20387;-90
2021/07/07 03:03:15;;;;;;;4.45;3.63;;;19.00;99.90;;;;;;5014624;28;20402;-87
2021/07/07 03:05:52;;;;;;;7.65;4.05;;;19.00;99.90;;;;;;4997517;28;20384;-84
2021/07/07 03:08:20;;;;;;;8.18;4.10;;;19.00;99.90;;;;;;4999123;28;20385;-87
2021/07/07 03:10:46;;;;;;;6.72;4.03;;;19.00;99.90;;;;;;5000359;28;20416;-85
2021/07/07 03:13:12;;;;;;;7.60;3.75;;;18.90;99.90;;;;;;5016842;28;20370;-84
2021/07/07 03:15:39;;;;;;;8.63;4.50;;;18.90;99.90;;;;;;5016148;28;20409;-85
2021/07/07 03:18:05;;;;;;;9.18;4.78;;;18.90;99.90;;;;;;5013242;28;20369;-86
2021/07/07 03:20:32;;;;;;;7.20;4.68;;;18.80;99.90;;;;;;5031341;28;20393;-89
2021/07/07 03:22:58;;;;;;;5.95;4.15;;;18.80;99.90;;;;;;5014509;28;20382;-88
2021/07/07 03:25:23;;;;;;;7.23;4.40;;;18.90;99.90;;;;;;5012606;28;20392;-86
2021/07/07 03:27:50;;;;;;;9.65;4.60;;;18.80;99.90;;;;;;5015567;28;20381;-87
2021/07/07 03:30:17;;;;;;;5.03;3.97;;;18.80;99.90;;;;;;5015440;28;20732;-84
2021/07/07 03:32:43;;;;;;;9.00;4.78;;;18.80;99.90;;;;;;5035497;28;20381;-87
2021/07/07 03:35:10;;;;;;;10.02;4.78;;;18.90;99.90;;;;;;5032948;28;20598;-83
2021/07/07 03:37:36;;;;;;;8.77;5.05;;;18.90;99.90;;;;;;5012414;28;20381;-83
2021/07/07 03:40:04;;;;;;;6.97;4.40;;;18.90;99.90;;;;;;4995175;28;20397;-81
2021/07/07 03:42:30;;;;;;;7.07;4.82;;;18.80;99.90;;;;;;5013493;28;20391;-87
2021/07/07 03:44:58;;;;;;;7.63;4.90;;;18.70;99.90;;;;;;5029570;28;20792;-83
2021/07/07 03:47:24;;;;;;;6.03;4.60;;;18.80;99.90;;;;;;5029126;28;20403;-83
2021/07/07 03:49:55;;;;;;;8.20;4.90;;;18.80;99.90;;;;;;5013852;28;20380;-88
2021/07/07 03:52:21;;;;;;;7.35;4.97;;;18.70;99.90;;;;;;5010561;28;20475;-90
2021/07/07 03:54:46;;;;;;;6.53;4.68;;;18.70;99.90;;;;;;5036107;28;20489;-89
2021/07/07 03:57:12;;;;;;;7.83;4.50;;;18.70;99.90;;;;;;5014975;28;20382;-86
2021/07/07 03:59:37;;;;;;;7.90;5.13;;;18.80;99.90;;;;;;5012974;28;20374;-83
2021/07/07 04:02:03;;;;;;;7.77;5.17;;;18.90;99.90;;;;;;5014325;28;20393;-85
2021/07/07 04:04:29;;;;;;;6.28;4.72;;;18.80;99.90;;;;;;5012800;28;20683;-87
2021/07/07 04:06:58;;;;;;;7.50;5.23;;;18.90;99.90;;;;;;5013649;28;20476;-84
2021/07/07 04:09:28;;;;;;;9.35;5.18;;;18.70;99.90;;;;;;5030830;28;20925;-86
2021/07/07 04:11:58;;;;;;;6.45;5.30;;;18.70;99.90;;;;;;5030371;28;20389;-88
2021/07/07 04:14:25;;;;;;;6.50;5.05;;;18.60;99.90;;;;;;5029467;28;20381;-88
2021/07/07 04:16:53;;;;;;;8.30;4.70;;;18.60;99.90;;;;;;5030311;28;20382;-87
2021/07/07 04:19:19;;;;;;;7.13;5.18;;;18.70;99.90;;;;;;5012509;28;20518;-86
2021/07/07 04:21:46;;;;;;;7.38;5.00;;;18.70;99.90;;;;;;5027899;28;20761;-84
2021/07/07 04:24:12;;;;;;;6.33;4.80;;;18.70;99.90;;;;;;4992530;28;20466;-82
2021/07/07 04:26:38;;;;;;;6.75;4.93;;;18.60;99.90;;;;;;5010270;28;20391;-86
2021/07/07 04:29:04;;;;;;;6.80;5.37;;;18.70;99.90;;;;;;5010877;28;20387;-87
2021/07/07 04:31:29;;;;;;;6.93;5.05;;;18.80;99.90;;;;;;4992412;28;20732;-84
2021/07/07 04:33:55;;;;;;;7.00;4.83;;;18.80;99.90;;;;;;5010310;28;20753;-82
2021/07/07 04:36:20;;;;;;;6.30;5.10;;;18.70;99.90;;;;;;5016951;28;20535;-83
2021/07/07 04:38:47;;;;;;;9.63;5.00;;;18.90;99.90;;;;;;5045168;28;20381;-85
2021/07/07 04:41:13;;;;;;;6.23;5.00;;;18.80;99.90;;;;;;5029167;28;20377;-82
2021/07/07 04:43:39;;;;;;;9.25;5.05;;;18.90;99.90;;;;;;5029359;28;20381;-85
2021/07/07 04:46:04;;;;;;;7.32;5.00;;;18.70;99.90;;;;;;5011969;28;20389;-84
2021/07/07 04:48:30;;;;;;;6.37;5.00;;;18.70;99.90;;;;;;5011685;28;20384;-85
2021/07/07 04:50:55;;;;;;;6.68;4.80;;;18.70;99.90;;;;;;5011569;28;20872;-84
2021/07/07 04:53:21;;;;;;;8.10;5.37;;;18.70;99.90;;;;;;5011501;28;20790;-84
2021/07/07 04:55:47;;;;;;;7.05;5.22;;;18.70;99.90;;;;;;5011243;28;20420;-83
2021/07/07 04:58:12;;;;;;;6.80;4.90;;;18.70;99.90;;;;;;5029330;28;20380;-87
2021/07/07 05:00:38;;;;;;;8.52;4.85;;;18.80;99.90;;;;;;5011274;28;20405;-85
2021/07/07 05:03:04;;;;;;;8.63;5.23;;;18.80;99.90;;;;;;5029321;28;20381;-83
2021/07/07 05:05:30;;;;;;;6.73;4.87;;;18.90;99.90;;;;;;4993840;28;20391;-86
2021/07/07 05:07:55;;;;;;;6.60;4.68;;;18.80;99.90;;;;;;5009499;28;20394;-82
2021/07/07 05:10:22;;;;;;;8.60;5.07;;;18.80;99.90;;;;;;5009263;28;20371;-87
2021/07/07 05:12:48;;;;;;;7.65;4.80;;;18.70;99.90;;;;;;4992249;28;20888;-86
2021/07/07 05:15:16;;;;;;;6.65;4.70;;;18.70;99.90;;;;;;4991939;28;20461;-86
2021/07/07 05:17:44;;;;;;;7.47;4.33;;;18.70;99.90;;;;;;4996803;28;20751;-84
2021/07/07 05:20:11;;;;;;;8.03;4.37;;;18.70;99.90;;;;;;5032994;28;20801;-84
2021/07/07 05:22:36;;;;;;;6.30;3.88;;;18.70;99.90;;;;;;5033768;28;20377;-88
2021/07/07 05:25:04;;;;;;;8.30;4.23;;;18.70;99.90;;;;;;5015889;28;20739;-85
2021/07/07 05:27:30;;;;;;;6.60;4.40;;;18.80;99.90;;;;;;5015836;28;20942;-84
2021/07/07 05:29:57;;;;;;;6.63;4.78;;;18.70;99.90;;;;;;5033831;28;20385;-84
2021/07/07 05:32:23;;;;;;;7.75;4.75;;;18.50;99.90;;;;;;5006839;28;20395;-85
2021/07/07 05:34:53;;;;;;;11.07;4.47;;;18.50;99.90;;;;;;5013005;28;20405;-84
2021/07/07 05:37:24;;;;;;;7.80;4.65;;;18.50;99.90;;;;;;5013145;28;20387;-86
2021/07/07 05:39:50;;;;;;;9.80;4.60;;;18.60;99.90;;;;;;5013524;28;20395;-85
2021/07/07 05:42:18;;;;;;;8.65;4.55;;;18.60;99.90;;;;;;4995424;28;20727;-82
2021/07/07 05:44:44;;;;;;;6.32;4.72;;;18.60;99.90;;;;;;5028315;28;20391;-84
2021/07/07 05:47:09;;;;;;;7.80;4.87;;;18.40;99.90;;;;;;5010674;28;20442;-83
2021/07/07 05:49:35;;;;;;;6.40;4.68;;;18.50;99.90;;;;;;5032906;28;20439;-82
2021/07/07 05:52:00;;;;;;;6.90;4.40;;;18.50;99.90;;;;;;5032288;28;20435;-83
2021/07/07 05:54:26;;;;;;;6.43;4.25;;;18.50;99.90;;;;;;5031808;28;20384;-82
2021/07/07 05:56:51;;;;;;;5.53;3.80;;;18.50;99.90;;;;;;5013554;28;20402;-82
2021/07/07 05:59:17;;;;;;;6.43;3.97;;;18.40;99.90;;;;;;5030964;28;20860;-83
2021/07/07 06:01:42;;;;;;;5.70;4.03;;;18.50;99.90;;;;;;5024979;28;20815;-84
2021/07/07 06:04:08;;;;;;;5.47;3.70;;;18.50;99.90;;;;;;5014685;28;20377;-83
2021/07/07 06:06:34;;;;;;;9.17;3.47;;;18.40;99.90;;;;;;5031844;28;20460;-86
2021/07/07 06:08:59;;;;;;;4.53;3.33;;;18.40;99.90;;;;;;5000620;28;20836;-83
2021/07/07 06:11:25;;;;;;;4.75;3.30;;;18.40;99.90;;;;;;4994978;28;20453;-83
2021/07/07 06:13:51;;;;;;;5.67;3.73;;;18.60;99.90;;;;;;5018925;28;20389;-82
2021/07/07 06:16:16;;;;;;;4.97;3.50;;;18.70;99.90;;;;;;5014421;28;20489;-84
2021/07/07 06:18:42;;;;;;;5.13;3.80;;;18.70;99.90;;;;;;5031963;28;20385;-83
2021/07/07 06:21:08;;;;;;;7.07;3.72;;;18.70;99.90;;;;;;5034425;28;20373;-88
2021/07/07 06:23:33;;;;;;;6.17;3.37;;;18.70;99.90;;;;;;5022676;28;20404;-89
2021/07/07 06:26:00;;;;;;;5.93;4.10;;;18.90;99.90;;;;;;5018614;28;20385;-85
2021/07/07 06:28:26;;;;;;;6.78;3.95;;;18.90;99.90;;;;;;5003779;28;20454;-88
2021/07/07 06:30:53;;;;;;;5.90;4.00;;;18.80;99.90;;;;;;4995226;28;20438;-88
2021/07/07 06:33:20;;;;;;;5.33;4.13;;;18.70;99.90;;;;;;4995906;28;20383;-85
2021/07/07 06:35:46;;;;;;;8.40;4.10;;;18.70;99.90;;;;;;4994302;28;20414;-83
2021/07/07 06:38:12;;;;;;;5.55;3.63;;;18.70;99.90;;;;;;5026764;28;20391;-83
2021/07/07 06:40:38;;;;;;;5.57;3.20;;;18.70;99.90;;;;;;4994061;28;20383;-82
2021/07/07 06:43:04;;;;;;;6.88;3.63;;;19.00;99.90;;;;;;5009525;28;20716;-82
2021/07/07 06:45:33;;;;;;;5.00;3.20;;;19.00;99.90;;;;;;5031578;28;20403;-83
2021/07/07 06:47:58;;;;;;;6.73;3.90;;;19.30;99.90;;;;;;5031335;28;20791;-82
2021/07/07 06:50:24;;;;;;;5.05;3.55;;;19.30;99.90;;;;;;5031427;28;20476;-82
2021/07/07 06:52:50;;;;;;;5.07;3.33;;;19.30;99.90;;;;;;5032359;28;20381;-82
2021/07/07 06:55:16;;;;;;;4.63;3.17;;;19.30;99.90;;;;;;5013966;28;20488;-83
2021/07/07 06:57:41;;;;;;;6.88;3.60;;;19.40;99.90;;;;;;5034068;28;20980;-81
2021/07/07 07:00:11;;;;;;;5.63;3.40;;;19.40;99.90;;;;;;5031430;28;20373;-87
2021/07/07 07:02:37;;;;;;;5.57;3.30;;;19.30;99.90;;;;;;5015403;28;20389;-82
2021/07/07 07:05:05;;;;;;;7.10;3.70;;;19.20;99.90;;;;;;5014929;28;20749;-84
2021/07/07 07:07:31;;;;;;;6.47;3.50;;;19.10;99.90;;;;;;4994365;28;20391;-87
2021/07/07 07:09:59;;;;;;;5.37;3.43;;;19.30;99.90;;;;;;5019622;28;20439;-83
2021/07/07 07:12:26;;;;;;;4.28;2.97;;;19.10;99.90;;;;;;5013551;28;20397;-83
2021/07/07 07:14:53;;;;;;;6.40;3.40;;;19.00;99.90;;;;;;5031613;28;20489;-85
2021/07/07 07:17:20;;;;;;;5.13;2.90;;;19.00;99.90;;;;;;5012323;28;21032;-82
2021/07/07 07:19:46;;;;;;;5.20;3.10;;;19.10;99.90;;;;;;5032518;28;20380;-87
2021/07/07 07:22:12;;;;;;;6.28;2.97;;;19.10;99.90;;;;;;5031902;28;20495;-88
2021/07/07 07:24:38;;;;;;;7.82;3.50;;;19.10;99.90;;;;;;5000371;28;20868;-86
2021/07/07 07:27:04;;;;;;;4.53;3.03;;;19.00;99.90;;;;;;5011257;28;20386;-82
2021/07/07 07:29:29;;;;;;;7.25;3.45;;;19.00;99.90;;;;;;5011266;28;20773;-83
2021/07/07 07:31:55;;;;;;;3.87;3.30;;;19.00;99.90;;;;;;5011227;28;20390;-83
2021/07/07 07:34:20;;;;;;;5.30;2.90;;;19.00;99.90;;;;;;4994820;28;20383;-89
2021/07/07 07:36:47;;;;;;;5.83;3.10;;;19.00;99.90;;;;;;4995728;28;20399;-87
2021/07/07 07:39:22;;;;;;;5.57;3.15;;;18.80;99.90;;;;;;5013240;28;20528;-84
2021/07/07 07:41:48;;;;;;;6.40;3.22;;;18.60;99.90;;;;;;5015739;28;20398;-81
2021/07/07 07:44:16;;;;;;;6.45;3.13;;;18.50;99.90;;;;;;5030665;28;20440;-85
2021/07/07 07:46:42;;;;;;;6.70;3.42;;;18.60;99.90;;;;;;5013010;28;20456;-84
2021/07/07 07:49:10;;;;;;;6.07;3.40;;;18.60;99.90;;;;;;5012328;28;20476;-84
2021/07/07 07:51:35;;;;;;;5.80;3.38;;;18.60;99.90;;;;;;5006446;28;20422;-82
2021/07/07 07:54:01;;;;;;;5.80;3.37;;;18.60;99.90;;;;;;5010732;28;21329;-87
2021/07/07 07:56:26;;;;;;;6.15;3.30;;;18.70;99.90;;;;;;4993501;28;20465;-86
2021/07/07 07:58:52;;;;;;;5.83;3.30;;;18.70;99.90;;;;;;4992971;28;20946;-81
2021/07/07 08:01:18;;;;;;;11.07;4.10;;;18.80;99.90;;;;;;5011433;28;20421;-81
2021/07/07 08:03:44;;;;;;;5.10;3.30;;;18.70;99.90;;;;;;4992707;28;20477;-82
2021/07/07 08:06:10;;;;;;;8.75;3.50;;;19.00;99.90;;;;;;5011389;28;20394;-82
2021/07/07 08:08:35;;;;;;;6.35;3.63;;;18.80;99.90;;;;;;5010400;28;20363;-82
2021/07/07 08:11:01;;;;;;;7.67;3.97;;;19.00;99.90;;;;;;5009855;28;20402;-83
2021/07/07 08:13:27;;;;;;;6.55;3.65;;;19.00;99.90;;;;;;5010101;28;20922;-85
2021/07/07 08:15:52;;;;;;;5.20;3.60;;;19.00;99.90;;;;;;5003956;28;20409;-85
2021/07/07 08:18:18;;;;;;;8.45;3.50;;;19.00;99.90;;;;;;5010120;28;20863;-83
2021/07/07 08:20:44;;;;;;;6.07;3.30;;;19.00;99.90;;;;;;5017887;28;20798;-88
2021/07/07 08:23:10;;;;;;;7.13;3.20;;;19.10;99.90;;;;;;5011593;28;20412;-86
2021/07/07 08:25:43;;;;;;;8.20;3.23;;;19.00;99.90;;;;;;5012589;28;20461;-86
2021/07/07 08:28:09;;;;;;;4.78;3.00;;;19.00;99.90;;;;;;5012271;28;20390;-83
2021/07/07 08:30:35;;;;;;;6.25;3.42;;;18.80;99.90;;;;;;5018232;28;20861;-83
2021/07/07 08:33:00;;;;;;;7.47;3.63;;;18.80;99.90;;;;;;5009092;28;20401;-83
2021/07/07 08:35:26;;;;;;;7.32;3.80;;;18.80;99.90;;;;;;5009462;28;20446;-83
2021/07/07 08:37:52;;;;;;;8.73;3.90;;;18.80;99.90;;;;;;5024774;28;20380;-83
2021/07/07 08:40:19;;;;;;;7.10;3.63;;;18.90;99.90;;;;;;5009778;28;20390;-84
2021/07/07 08:42:46;;;;;;;5.18;3.53;;;19.00;99.90;;;;;;5012537;28;20395;-83
2021/07/07 08:45:15;;;;;;;6.32;3.40;;;19.10;99.90;;;;;;5024587;28;20906;-83
2021/07/07 08:47:44;;;;;;;6.72;3.60;;;19.20;99.90;;;;;;5009133;28;20865;-83
2021/07/07 08:50:16;;;;;;;5.20;3.90;;;19.40;99.90;;;;;;4991470;28;20382;-82
2021/07/07 08:52:41;;;;;;;6.50;3.55;;;19.60;99.90;;;;;;5008324;28;20388;-81
2021/07/07 08:55:10;;;;;;;5.87;3.80;;;19.70;99.90;;;;;;5009023;28;20457;-84
2021/07/07 08:57:42;;;;;;;5.72;3.78;;;19.80;99.90;;;;;;5017336;28;20394;-82
2021/07/07 09:00:20;;;;;;;6.07;3.95;;;19.90;99.90;;;;;;4991554;28;20402;-83
2021/07/07 09:02:51;;;;;;;6.45;3.95;;;19.90;99.90;;;;;;4991496;28;20395;-83
2021/07/07 09:05:17;;;;;;;5.70;4.35;;;19.90;99.90;;;;;;5024918;28;20397;-84
2021/07/07 09:07:43;;;;;;;6.03;3.80;;;19.90;99.90;;;;;;5028759;28;20452;-84
2021/07/07 09:10:14;;;;;;;4.37;3.10;;;19.90;99.90;;;;;;5012212;28;20406;-89
2021/07/07 09:12:40;;;;;;;5.68;2.90;;;20.00;99.90;;;;;;4993214;28;20399;-87
2021/07/07 09:15:09;;;;;;;5.10;2.80;;;20.00;99.90;;;;;;4992586;28;20426;-85
2021/07/07 09:17:41;;;;;;;4.03;2.65;;;19.90;99.90;;;;;;5011608;28;20379;-84
2021/07/07 09:20:34;;;;;;;4.70;2.83;;;19.90;99.90;;;;;;4992825;28;20391;-84
2021/07/07 09:23:20;;;;;;;5.55;2.88;;;19.90;99.90;;;;;;5012302;28;20382;-90
2021/07/07 09:26:03;;;;;;;4.55;2.78;;;20.10;99.90;;;;;;5009292;28;20426;-85
2021/07/07 09:28:34;;;;;;;3.30;2.35;;;20.30;99.90;;;;;;5018193;28;20400;-88
2021/07/07 09:31:24;;;;;;;4.45;2.60;;;20.30;99.90;;;;;;5027273;28;20444;-86
2021/07/07 09:33:50;;;;;;;4.78;2.50;;;20.30;99.90;;;;;;5000683;28;20894;-88
2021/07/07 09:36:24;;;;;;;4.63;2.57;;;20.30;99.90;;;;;;5030137;28;20393;-90
2021/07/07 09:38:52;;;;;;;6.43;3.00;;;20.00;99.90;;;;;;5029370;28;20373;-88
2021/07/07 09:41:19;;;;;;;3.50;2.58;;;20.00;99.90;;;;;;5011901;28;20401;-89
2021/07/07 09:43:53;;;;;;;4.03;2.40;;;20.00;99.90;;;;;;5043450;28;20714;-86
2021/07/07 09:46:21;;;;;;;3.83;2.50;;;20.10;99.90;;;;;;5045161;28;20403;-85
2021/07/07 09:48:48;;;;;;;3.95;2.42;;;20.30;99.90;;;;;;5014147;28;20402;-88
2021/07/07 09:51:14;;;;;;;3.13;2.22;;;20.50;99.90;;;;;;5010815;28;20394;-88
2021/07/07 09:53:39;;;;;;;5.90;2.50;;;20.90;99.90;;;;;;4991247;28;20892;-85
2021/07/07 09:56:05;;;;;;;3.78;2.70;;;21.20;99.90;;;;;;4999821;28;20527;-84
2021/07/07 09:58:31;;;;;;;4.93;2.40;;;21.30;99.90;;;;;;5011372;28;20389;-87
2021/07/07 10:00:57;;;;;;;3.95;2.65;;;21.60;99.90;;;;;;5014257;28;20474;-85
2021/07/07 10:03:23;;;;;;;6.47;2.78;;;21.80;99.90;;;;;;5013068;28;20391;-88
2021/07/07 10:05:50;;;;;;;4.97;2.55;;;22.10;99.90;;;;;;5033196;28;20397;-85
2021/07/07 10:08:17;;;;;;;4.60;2.40;;;22.40;99.90;;;;;;5032724;28;20380;-86
2021/07/07 10:10:44;;;;;;;3.35;2.38;;;22.50;99.90;;;;;;5011294;28;20402;-88
2021/07/07 10:13:10;;;;;;;5.32;2.53;;;22.20;99.90;;;;;;5014927;28;20383;-85
2021/07/07 10:15:37;;;;;;;5.25;2.60;;;22.20;99.90;;;;;;5024635;28;20412;-87
2021/07/07 10:18:05;;;;;;;4.15;2.70;;;22.00;99.90;;;;;;5041370;28;20384;-86
2021/07/07 10:20:31;;;;;;;3.60;2.65;;;21.80;99.90;;;;;;5027425;28;20398;-83
2021/07/07 10:23:00;;;;;;;3.57;2.30;;;21.70;99.90;;;;;;5025726;28;20426;-84
2021/07/07 10:25:29;;;;;;;2.78;2.25;;;21.70;99.90;;;;;;5044918;28;20389;-86
2021/07/07 10:27:57;;;;;;;3.78;1.85;;;21.70;99.90;;;;;;5046108;28;20416;-85
2021/07/07 10:30:57;;;;;;;5.20;2.28;;;21.90;99.90;;;;;;5045608;28;20385;-83
2021/07/07 10:33:28;;;;;;;3.78;2.20;;;21.90;99.90;;;;;;5037523;28;20391;-87
2021/07/07 10:36:30;;;;;;;3.00;2.10;;;21.70;99.90;;;;;;5028146;28;20506;-83
2021/07/07 10:39:07;;;;;;;4.43;2.40;;;21.70;99.90;;;;;;5027482;28;20452;-87
2021/07/07 10:41:48;;;;;;;3.65;2.00;;;21.80;99.90;;;;;;5030971;28;20423;-85
2021/07/07 10:44:23;;;;;;;4.70;2.10;;;21.80;99.90;;;;;;5045780;28;20414;-84
2021/07/07 10:46:59;;;;;;;4.68;2.13;;;22.00;99.90;;;;;;5043142;28;20449;-83
2021/07/07 10:49:44;;;;;;;19.23;2.42;;;22.20;99.90;;;;;;5044332;28;20419;-84
2021/07/07 10:52:16;;;;;;;3.75;1.70;;;22.50;99.90;;;;;;5026417;28;20528;-85
2021/07/07 10:54:54;;;;;;;4.60;2.27;;;22.90;99.90;;;;;;5027833;28;20740;-84
2021/07/07 10:57:25;;;;;;;4.13;2.15;;;23.20;99.90;;;;;;5011176;28;20380;-85
2021/07/07 10:59:55;;;;;;;3.37;1.70;;;23.50;99.90;;;;;;5028164;28;20391;-84
2021/07/07 11:02:23;;;;;;;5.85;1.85;;;23.80;99.90;;;;;;5046141;28;20737;-85
2021/07/07 11:04:54;;;;;;;2.75;1.60;;;23.90;99.90;;;;;;5026675;28;20376;-83
2021/07/07 11:07:34;;;;;;;4.40;1.65;;;24.00;99.90;;;;;;5042436;28;20393;-83
2021/07/07 11:10:07;;;;;;;3.90;1.73;;;24.00;99.90;;;;;;5046215;28;20383;-83
2021/07/07 11:12:40;;;;;;;5.27;1.97;;;23.80;99.90;;;;;;5027172;28;20396;-82
2021/07/07 11:15:17;;;;;;;5.22;1.90;;;23.80;99.90;;;;;;5043292;28;20463;-82
2021/07/07 11:17:51;;;;;;;3.63;1.88;;;24.00;99.90;;;;;;5046796;28;20372;-84
2021/07/07 11:20:18;;;;;;;6.00;1.70;;;24.30;99.90;;;;;;5046316;28;20427;-83
2021/07/07 11:22:46;;;;;;;5.70;1.90;;;24.70;99.90;;;;;;5045375;28;20372;-85
2021/07/07 11:25:15;;;;;;;4.65;1.50;;;24.80;99.90;;;;;;5040163;28;20378;-85
2021/07/07 11:27:43;;;;;;;5.50;1.60;;;24.70;99.90;;;;;;5012394;28;20381;-86
2021/07/07 11:30:12;;;;;;;5.30;1.90;;;24.50;99.90;;;;;;5019539;28;20397;-86
2021/07/07 11:32:43;;;;;;;2.60;1.50;;;24.30;99.90;;;;;;5022052;28;20394;-82
2021/07/07 11:35:15;;;;;;;2.70;1.58;;;24.40;99.90;;;;;;5019633;28;20401;-82
2021/07/07 11:37:41;;;;;;;5.03;1.60;;;24.60;99.90;;;;;;5023693;28;21004;-84
2021/07/07 11:40:18;;;;;;;5.55;2.20;;;;;;;;;;5020263;28;20379;-85
2021/07/07 11:43:11;;;;;;;4.05;2.00;;;;;;;;;;5006439;28;20438;-86
2021/07/07 11:45:37;;;;;;;4.80;1.85;;;;;;;;;;5019132;28;20378;-86
2021/07/07 11:50:47;;;;;;;3.20;1.73;;;;;;;;;;5021413;28;20385;-85
2021/07/07 11:53:14;;;;;;;3.73;1.90;;;;;;;;;;5020825;28;20406;-83
2021/07/07 11:55:45;;;;;;;7.68;1.95;;;;;;;;;;5023609;28;20409;-81
2021/07/07 11:58:17;;;;;;;3.40;1.92;;;;;;;;;;5021553;28;20751;-84
2021/07/07 12:00:44;;;;;;;4.57;1.55;;;;;;;;;;5024226;28;20391;-82
2021/07/07 12:03:10;;;;;;;3.05;1.50;;;;;;;;;;5019093;28;20427;-83
2021/07/07 12:05:36;;;;;;;4.38;1.40;;;;;;;;;;5021877;28;20400;-80
2021/07/07 12:08:28;;;;;;;2.70;1.50;;;;;;;;;;5017197;28;20385;-82
2021/07/07 12:11:03;;;;;;;2.70;1.40;;;;;;;;;;5019467;28;20421;-84
2021/07/07 12:13:30;;;;;;;4.57;1.45;;;;;;;;;;5032854;28;20466;-83
2021/07/07 12:16:15;;;;;;;4.00;1.53;;;;;;;;;;5031617;28;20465;-84
2021/07/07 12:18:42;;;;;;;3.28;1.30;;;;;;;;;;5003277;28;20468;-84
2021/07/07 12:21:08;;;;;;;4.82;1.50;;;;;;;;;;5033983;28;20383;-81
2021/07/07 12:23:45;;;;;;;2.10;1.33;;;;;;;;;;5018143;28;21011;-84
2021/07/07 12:26:12;;;;;;;3.25;1.42;;;;;;;;;;5019208;28;20840;-83
2021/07/07 12:28:39;;;;;;;4.47;1.80;;;;;;;;;;5017957;28;20375;-86
2021/07/07 12:31:05;;;;;;;2.65;1.35;;;;;;;;;;5020120;28;20810;-82
2021/07/07 12:33:33;;;;;;;2.70;1.40;;;;;;;;;;5018888;28;20741;-86
2021/07/07 12:35:59;;;;;;;2.30;1.20;;;;;;;;;;5033660;28;20398;-83
2021/07/07 12:38:25;;;;;;;2.75;1.42;;;;;;;;;;5019793;28;20380;-85
2021/07/07 12:40:55;;;;;;;1.80;1.20;;;;;;;;;;5018525;28;20359;-83
2021/07/07 12:43:56;;;;;;;2.88;1.42;;;;;;;;;;5018644;28;20460;-83
2021/07/07 12:46:14;;;;;;;1.60;1.10;;;;;;;;;;5020674;28;20457;-82
2021/07/07 12:48:53;;;;;;;3.47;1.23;;;;;;;;;;5018045;28;20862;-86
2021/07/07 12:51:25;;;;;;;2.13;1.10;;;;;;;;;;5032538;28;20464;-82
2021/07/07 12:53:51;;;;;;;2.08;1.30;;;;;;;;;;5027740;28;20483;-84
2021/07/07 12:56:17;;;;;;;2.53;1.20;;;;;;;;;;5033669;28;20506;-82
2021/07/07 12:58:44;;;;;;;1.77;1.00;;;;;;;;;;5035048;28;20392;-82
2021/07/07 13:01:20;;;;;;;2.22;1.02;;;;;;;;;;5017444;28;20355;-84
2021/07/07 13:03:46;;;;;;;2.25;1.10;;;;;;;;;;5032803;28;20415;-84
2021/07/07 13:06:19;;;;;;;3.28;1.10;;;;;;;;;;5019246;28;20844;-87
2021/07/07 13:08:46;;;;;;;2.20;1.10;;;;;;;;;;5034511;28;20437;-84